Time;durP1;ratioP1;P1;durP2;ratioP2;P2;SDS_P1;SDS_P2;PMS_P1;PMS_P2;Temp;Humidity;BMP_temperature;BMP_pressure;BME280_temperature;BME280_humidity;BME280_pressure;Samples;Min_cycle;Max_cycle;Signal;HPM_P1;HPM_P2
2021/12/20 00:02:04;;;;;;;0.00;0.00;;;;;;;;;;4953905;28;20241;-74
2021/12/20 00:04:35;;;;;;;0.00;0.00;;;;;;;;;;4970010;28;20208;-74
2021/12/20 00:07:05;;;;;;;0.00;0.00;;;;;;;;;;4990090;28;20228;-74
2021/12/20 00:09:34;;;;;;;0.00;0.00;;;;;;;;;;4973479;28;20592;-74
2021/12/20 00:12:04;;;;;;;0.00;0.00;;;;;;;;;;4973546;28;20589;-74
2021/12/20 00:14:34;;;;;;;0.00;0.00;;;;;;;;;;4974337;28;20241;-74
2021/12/20 00:17:08;;;;;;;0.00;0.00;;;;;;;;;;4973724;28;20231;-74
2021/12/20 00:19:39;;;;;;;0.00;0.00;;;;;;;;;;4974068;28;20222;-74
2021/12/20 00:22:08;;;;;;;0.00;0.00;;;;;;;;;;4973088;28;20210;-74
2021/12/20 00:24:38;;;;;;;0.00;0.00;;;;;;;;;;4973351;28;20211;-74
2021/12/20 00:27:09;;;;;;;0.00;0.00;;;;;;;;;;4972717;28;20636;-74
2021/12/20 00:29:39;;;;;;;0.00;0.00;;;;;;;;;;4973248;28;20693;-74
2021/12/20 00:32:12;;;;;;;0.00;0.00;;;;;;;;;;4973838;28;20201;-74
2021/12/20 00:34:42;;;;;;;0.00;0.00;;;;;;;;;;4973944;28;20208;-74
2021/12/20 00:42:43;;;;;;;0.00;0.00;;;;;;;;;;4972630;28;20213;-74
2021/12/20 00:45:14;;;;;;;0.00;0.00;;;;;;;;;;4973116;28;20288;-74
2021/12/20 00:47:48;;;;;;;0.00;0.00;;;;;;;;;;4972180;28;20228;-74
2021/12/20 00:50:21;;;;;;;0.00;0.00;;;;;;;;;;4967568;28;20550;-74
2021/12/20 00:52:53;;;;;;;0.00;0.00;;;;;;;;;;4952535;28;20295;-74
2021/12/20 00:55:23;;;;;;;0.00;0.00;;;;;;;;;;4953793;29;20207;-74
2021/12/20 00:57:54;;;;;;;0.00;0.00;;;;;;;;;;4953840;28;20259;-74
2021/12/20 01:00:25;;;;;;;0.00;0.00;;;;;;;;;;4953945;28;20209;-74
2021/12/20 01:02:56;;;;;;;0.00;0.00;;;;;;;;;;4954355;28;20323;-74
2021/12/20 01:05:27;;;;;;;0.00;0.00;;;;;;;;;;4984088;28;20203;-74
2021/12/20 01:07:59;;;;;;;0.00;0.00;;;;;;;;;;4982298;28;20787;-74
2021/12/20 01:10:30;;;;;;;0.00;0.00;;;;;;;;;;4972519;28;20640;-74
2021/12/20 01:13:01;;;;;;;0.00;0.00;;;;;;;;;;4973444;28;20206;-74
2021/12/20 01:15:34;;;;;;;0.00;0.00;;;;;;;;;;4976645;28;20209;-74
2021/12/20 01:18:07;;;;;;;0.00;0.00;;;;;;;;;;4976762;28;20577;-74
2021/12/20 01:20:37;;;;;;;0.00;0.00;;;;;;;;;;4976904;28;20206;-74
2021/12/20 01:23:08;;;;;;;0.00;0.00;;;;;;;;;;4976595;28;20286;-74
2021/12/20 01:25:40;;;;;;;0.00;0.00;;;;;;;;;;4972548;28;20279;-74
2021/12/20 01:28:29;;;;;;;0.00;0.00;;;;;;;;;;4956985;28;20227;-74
2021/12/20 01:31:06;;;;;;;0.00;0.00;;;;;;;;;;4957465;28;20608;-74
2021/12/20 01:33:39;;;;;;;0.00;0.00;;;;;;;;;;4957060;29;20251;-73
2021/12/20 01:36:09;;;;;;;0.00;0.00;;;;;;;;;;4957126;28;20217;-73
2021/12/20 01:38:39;;;;;;;0.00;0.00;;;;;;;;;;4966399;28;20659;-74
2021/12/20 01:41:10;;;;;;;0.00;0.00;;;;;;;;;;4956703;28;20565;-74
2021/12/20 01:43:40;;;;;;;0.10;0.10;;;;;;;;;;4957257;28;20210;-74
2021/12/20 01:46:09;;;;;;;0.07;0.07;;;;;;;;;;4956602;28;20214;-74
2021/12/20 01:48:43;;;;;;;0.07;0.07;;;;;;;;;;4976316;28;20209;-74
2021/12/20 01:53:49;;;;;;;0.10;0.10;;;;;;;;;;4972537;28;20205;-74
2021/12/20 01:56:19;;;;;;;0.00;0.00;;;;;;;;;;4975270;28;20740;-73
2021/12/20 01:58:51;;;;;;;0.00;0.00;;;;;;;;;;4976183;28;20583;-73
2021/12/20 02:01:25;;;;;;;0.00;0.00;;;;;;;;;;4976454;28;20206;-73
2021/12/20 02:04:00;;;;;;;0.00;0.00;;;;;;;;;;4978624;28;20229;-73
2021/12/20 02:06:34;;;;;;;0.00;0.00;;;;;;;;;;4975511;28;20558;-73
2021/12/20 02:09:06;;;;;;;0.00;0.00;;;;;;;;;;4974930;28;20260;-73
2021/12/20 02:11:39;;;;;;;0.00;0.00;;;;;;;;;;4974797;28;20221;-73
2021/12/20 02:14:10;;;;;;;0.00;0.00;;;;;;;;;;4975700;28;20241;-73
2021/12/20 02:16:40;;;;;;;0.00;0.00;;;;;;;;;;4974924;28;20589;-73
2021/12/20 02:19:13;;;;;;;0.00;0.00;;;;;;;;;;4973390;28;20264;-73
2021/12/20 02:21:46;;;;;;;0.00;0.00;;;;;;;;;;4975620;28;20293;-73
2021/12/20 02:24:17;;;;;;;0.10;0.10;;;;;;;;;;4956265;28;20721;-73
2021/12/20 02:26:50;;;;;;;0.10;0.10;;;;;;;;;;4965860;28;20237;-73
2021/12/20 02:29:27;;;;;;;0.10;0.10;;;;;;;;;;4974812;28;20665;-73
2021/12/20 02:37:37;;;;;;;0.07;0.00;;;;;;;;;;4975281;28;20237;-73
2021/12/20 02:40:07;;;;;;;0.10;0.10;;;;;;;;;;4973573;28;20190;-73
2021/12/20 02:42:42;;;;;;;0.10;0.10;;;;;;;;;;4975951;28;20186;-73
2021/12/20 02:45:14;;;;;;;0.30;0.20;;;;;;;;;;4970721;28;20209;-73
2021/12/20 02:47:45;;;;;;;0.00;0.00;;;;;;;;;;4957466;28;20724;-73
2021/12/20 02:50:15;;;;;;;0.00;0.00;;;;;;;;;;4973899;28;20237;-73
2021/12/20 02:52:46;;;;;;;0.10;0.10;;;;;;;;;;4973115;28;20242;-73
2021/12/20 02:55:16;;;;;;;0.07;0.07;;;;;;;;;;4970956;28;20193;-73
2021/12/20 02:57:47;;;;;;;0.00;0.00;;;;;;;;;;4975074;28;20230;-73
2021/12/20 03:00:18;;;;;;;0.13;0.13;;;;;;;;;;4973903;28;20226;-73
2021/12/20 03:02:48;;;;;;;0.00;0.00;;;;;;;;;;4956221;29;20437;-73
2021/12/20 03:05:18;;;;;;;0.00;0.00;;;;;;;;;;4955430;29;20252;-73
2021/12/20 03:07:53;;;;;;;0.00;0.00;;;;;;;;;;4963841;28;20681;-73
2021/12/20 03:10:28;;;;;;;0.10;0.10;;;;;;;;;;4961006;28;20225;-73
2021/12/20 03:12:57;;;;;;;0.10;0.10;;;;;;;;;;4974573;28;20204;-73
2021/12/20 03:15:28;;;;;;;0.00;0.00;;;;;;;;;;4974792;28;20244;-73
2021/12/20 03:17:59;;;;;;;0.10;0.10;;;;;;;;;;4974696;28;20576;-73
2021/12/20 03:20:29;;;;;;;0.10;0.10;;;;;;;;;;4969567;28;20202;-73
2021/12/20 03:23:02;;;;;;;0.10;0.10;;;;;;;;;;4973752;28;20201;-73
2021/12/20 03:25:34;;;;;;;0.10;0.10;;;;;;;;;;4974143;28;20215;-73
2021/12/20 03:28:04;;;;;;;0.10;0.10;;;;;;;;;;4956416;28;20627;-73
2021/12/20 03:30:34;;;;;;;0.10;0.10;;;;;;;;;;4963160;28;20226;-73
2021/12/20 03:33:04;;;;;;;0.07;0.07;;;;;;;;;;4974196;28;20269;-73
2021/12/20 03:35:34;;;;;;;0.07;0.07;;;;;;;;;;4973889;28;20209;-73
2021/12/20 03:38:06;;;;;;;0.20;0.20;;;;;;;;;;4965431;28;20237;-73
2021/12/20 03:40:38;;;;;;;1.03;0.10;;;;;;;;;;4972961;28;20219;-73
2021/12/20 03:43:12;;;;;;;0.27;0.10;;;;;;;;;;4971449;28;20197;-74
2021/12/20 03:45:44;;;;;;;0.10;0.10;;;;;;;;;;4964007;28;20235;-74
2021/12/20 03:48:14;;;;;;;0.07;0.07;;;;;;;;;;4973951;28;20278;-73
2021/12/20 03:50:45;;;;;;;0.30;0.30;;;;;;;;;;4968461;28;20783;-73
2021/12/20 03:53:25;;;;;;;0.30;0.20;;;;;;;;;;4973640;28;20220;-73
2021/12/20 03:55:55;;;;;;;1.50;0.20;;;;;;;;;;4972702;28;20235;-73
2021/12/20 03:58:26;;;;;;;0.50;0.27;;;;;;;;;;4973751;28;20230;-73
2021/12/20 04:00:56;;;;;;;0.33;0.20;;;;;;;;;;4973803;28;20259;-73
2021/12/20 04:03:30;;;;;;;0.53;0.23;;;;;;;;;;4969256;28;20217;-73
2021/12/20 04:06:00;;;;;;;0.27;0.27;;;;;;;;;;4973727;28;20208;-74
2021/12/20 04:08:32;;;;;;;0.73;0.23;;;;;;;;;;4972749;28;20236;-73
2021/12/20 04:11:17;;;;;;;0.77;0.47;;;;;;;;;;4973258;28;20213;-73
2021/12/20 04:13:47;;;;;;;2.73;0.47;;;;;;;;;;4973041;28;20201;-73
2021/12/20 04:16:17;;;;;;;0.20;0.17;;;;;;;;;;4973257;28;20209;-73
2021/12/20 04:18:46;;;;;;;7.53;0.63;;;;;;;;;;4973519;28;20213;-74
2021/12/20 04:21:17;;;;;;;1.30;0.73;;;;;;;;;;4973831;28;20200;-74
2021/12/20 04:23:48;;;;;;;11.13;0.77;;;;;;;;;;4971410;28;20209;-73
2021/12/20 04:26:18;;;;;;;2.90;0.33;;;;;;;;;;4973358;28;20208;-73
2021/12/20 04:28:47;;;;;;;3.40;0.57;;;;;;;;;;4974208;28;20230;-73
2021/12/20 04:31:17;;;;;;;6.13;1.03;;;;;;;;;;4972473;28;20311;-73
2021/12/20 04:33:47;;;;;;;6.60;1.13;;;;;;;;;;4973400;28;20209;-73
2021/12/20 04:36:19;;;;;;;1.10;1.00;;;;;;;;;;4973314;28;20204;-73
2021/12/20 04:38:51;;;;;;;2.27;0.67;;;;;;;;;;4970055;28;20260;-73
2021/12/20 04:41:23;;;;;;;0.73;0.63;;;;;;;;;;4971596;28;20200;-73
2021/12/20 04:43:53;;;;;;;2.23;0.90;;;;;;;;;;4972651;28;20615;-73
2021/12/20 04:46:23;;;;;;;1.80;0.83;;;;;;;;;;4973038;28;20213;-73
2021/12/20 04:48:53;;;;;;;1.43;0.77;;;;;;;;;;4974225;28;20728;-73
2021/12/20 04:51:22;;;;;;;1.23;0.73;;;;;;;;;;4976351;28;20216;-73
2021/12/20 04:53:53;;;;;;;2.47;1.00;;;;;;;;;;4976666;28;20209;-73
2021/12/20 04:56:25;;;;;;;0.83;0.70;;;;;;;;;;4977052;28;20231;-73
2021/12/20 04:58:55;;;;;;;4.17;1.30;;;;;;;;;;4976058;28;20287;-73
2021/12/20 05:01:27;;;;;;;2.07;1.03;;;;;;;;;;4976669;28;20209;-73
2021/12/20 05:03:58;;;;;;;7.00;1.50;;;;;;;;;;4976978;28;20216;-73
2021/12/20 05:06:29;;;;;;;18.33;2.27;;;;;;;;;;4976654;28;20348;-73
2021/12/20 05:09:04;;;;;;;1.23;1.10;;;;;;;;;;4975948;28;20303;-73
2021/12/20 05:11:35;;;;;;;12.80;2.10;;;;;;;;;;4976243;28;20224;-74
2021/12/20 05:14:06;;;;;;;5.50;2.27;;;;;;;;;;4976264;28;20615;-74
2021/12/20 05:16:36;;;;;;;12.83;1.80;;;;;;;;;;4975520;28;20705;-74
2021/12/20 05:19:11;;;;;;;8.60;1.60;;;;;;;;;;4979241;28;20256;-73
2021/12/20 05:21:42;;;;;;;4.70;1.70;;;;;;;;;;4976808;28;20691;-74
2021/12/20 05:24:14;;;;;;;9.83;2.00;;;;;;;;;;4975764;28;20640;-73
2021/12/20 05:26:46;;;;;;;5.33;1.40;;;;;;;;;;4972094;28;20224;-74
2021/12/20 05:29:16;;;;;;;6.60;2.07;;;;;;;;;;4976091;28;20213;-74
2021/12/20 05:31:46;;;;;;;12.83;2.70;;;;;;;;;;4957598;28;20235;-73
2021/12/20 05:34:15;;;;;;;4.80;1.80;;;;;;;;;;4964783;28;20201;-73
2021/12/20 05:36:46;;;;;;;7.93;1.50;;;;;;;;;;4975380;28;20262;-73
2021/12/20 05:39:20;;;;;;;14.33;2.07;;;;;;;;;;4975364;28;20276;-74
2021/12/20 05:41:50;;;;;;;5.30;1.67;;;;;;;;;;4976651;28;20619;-74
2021/12/20 05:44:23;;;;;;;2.33;1.70;;;;;;;;;;4976028;28;20252;-74
2021/12/20 05:46:53;;;;;;;14.00;1.60;;;;;;;;;;4969818;28;20236;-74
2021/12/20 05:49:23;;;;;;;1.60;1.33;;;;;;;;;;4975286;28;20197;-74
2021/12/20 05:51:57;;;;;;;37.70;3.50;;;;;;;;;;4975830;28;20220;-74
2021/12/20 05:54:28;;;;;;;6.80;1.60;;;;;;;;;;4967024;28;20257;-74
2021/12/20 05:56:58;;;;;;;10.73;1.40;;;;;;;;;;4967067;28;20216;-74
2021/12/20 05:59:28;;;;;;;9.93;1.60;;;;;;;;;;4975793;28;20255;-74
2021/12/20 06:01:57;;;;;;;9.80;1.20;;;;;;;;;;4974886;28;20209;-74
2021/12/20 06:04:28;;;;;;;9.63;2.53;;;;;;;;;;4976136;28;20201;-75
2021/12/20 06:06:58;;;;;;;5.50;1.50;;;;;;;;;;4975367;28;20352;-76
2021/12/20 06:09:30;;;;;;;4.47;1.30;;;;;;;;;;4974897;28;20211;-75
2021/12/20 06:12:06;;;;;;;9.33;1.40;;;;;;;;;;4965859;28;20243;-73
2021/12/20 06:14:37;;;;;;;3.93;1.17;;;;;;;;;;4956960;28;20236;-76
2021/12/20 06:17:07;;;;;;;9.03;1.70;;;;;;;;;;4966050;28;20241;-74
2021/12/20 06:19:39;;;;;;;6.87;1.70;;;;;;;;;;4975753;28;20746;-74
2021/12/20 06:22:12;;;;;;;6.87;1.60;;;;;;;;;;4975242;28;20268;-74
2021/12/20 06:24:43;;;;;;;5.97;1.70;;;;;;;;;;4975356;28;20205;-74
2021/12/20 06:27:13;;;;;;;13.03;2.27;;;;;;;;;;4974586;28;20259;-74
2021/12/20 06:29:43;;;;;;;10.53;1.90;;;;;;;;;;4975361;28;20212;-76
2021/12/20 06:32:14;;;;;;;19.10;2.30;;;;;;;;;;4970375;28;20270;-75
2021/12/20 06:34:48;;;;;;;9.23;2.33;;;;;;;;;;4970939;28;20207;-75
2021/12/20 06:37:19;;;;;;;13.13;2.63;;;;;;;;;;4973494;28;20707;-74
2021/12/20 06:39:52;;;;;;;10.93;2.23;;;;;;;;;;4973143;28;20211;-75
2021/12/20 06:42:21;;;;;;;9.43;2.30;;;;;;;;;;4975098;28;20203;-74
2021/12/20 06:44:54;;;;;;;4.13;1.70;;;;;;;;;;4975159;28;20215;-74
2021/12/20 06:47:24;;;;;;;3.87;1.70;;;;;;;;;;4975706;28;20628;-74
2021/12/20 06:49:56;;;;;;;7.13;1.50;;;;;;;;;;4974590;28;20679;-74
2021/12/20 06:52:26;;;;;;;3.03;2.00;;;;;;;;;;4974573;28;20583;-74
2021/12/20 06:54:58;;;;;;;16.13;2.07;;;;;;;;;;4974567;28;20205;-73
2021/12/20 06:57:27;;;;;;;6.33;1.80;;;;;;;;;;4974863;28;20226;-74
2021/12/20 06:59:57;;;;;;;3.20;1.43;;;;;;;;;;4974572;28;20623;-74
2021/12/20 07:02:28;;;;;;;4.70;1.70;;;;;;;;;;4975067;28;20314;-75
2021/12/20 07:04:59;;;;;;;8.07;2.27;;;;;;;;;;4974567;28;20676;-76
2021/12/20 07:07:30;;;;;;;15.20;2.00;;;;;;;;;;4985434;28;20247;-74
2021/12/20 07:10:01;;;;;;;4.27;1.40;;;;;;;;;;4974095;28;20213;-74
2021/12/20 07:12:33;;;;;;;2.77;1.93;;;;;;;;;;4974328;28;20631;-74
2021/12/20 07:15:04;;;;;;;2.30;1.70;;;;;;;;;;4974675;28;20210;-74
2021/12/20 07:17:34;;;;;;;3.10;1.80;;;;;;;;;;4973379;28;20718;-75
2021/12/20 07:20:09;;;;;;;3.93;1.80;;;;;;;;;;4974631;28;20211;-74
2021/12/20 07:22:40;;;;;;;11.80;2.17;;;;;;;;;;4974232;28;20234;-73
2021/12/20 07:25:14;;;;;;;11.33;2.27;;;;;;;;;;4974356;28;20218;-75
2021/12/20 07:27:46;;;;;;;14.03;2.33;;;;;;;;;;4974488;28;20310;-75
2021/12/20 07:30:18;;;;;;;10.00;2.33;;;;;;;;;;4974588;28;20647;-74
2021/12/20 07:32:48;;;;;;;9.23;2.30;;;;;;;;;;4974387;28;20590;-75
2021/12/20 07:35:19;;;;;;;20.20;2.53;;;;;;;;;;4974603;28;20215;-75
2021/12/20 07:38:00;;;;;;;10.93;2.57;;;;;;;;;;4973881;28;20281;-75
2021/12/20 07:40:31;;;;;;;12.00;1.93;;;;;;;;;;4974138;28;20551;-74
2021/12/20 07:43:02;;;;;;;9.70;2.23;;;;;;;;;;4974849;28;20222;-75
2021/12/20 07:45:32;;;;;;;3.73;2.47;;;;;;;;;;4974331;28;20598;-74
2021/12/20 07:48:02;;;;;;;17.07;2.10;;;;;;;;;;4974257;28;20227;-75
2021/12/20 07:50:32;;;;;;;8.60;2.10;;;;;;;;;;4974187;28;20206;-75
2021/12/20 07:53:04;;;;;;;9.00;2.33;;;;;;;;;;4973599;28;20230;-74
2021/12/20 07:55:35;;;;;;;5.20;2.60;;;;;;;;;;4973224;28;20297;-74
2021/12/20 07:58:05;;;;;;;3.63;2.13;;;;;;;;;;4974119;28;20586;-75
2021/12/20 08:00:46;;;;;;;4.27;2.00;;;;;;;;;;4973697;28;20658;-75
2021/12/20 08:03:15;;;;;;;4.37;2.00;;;;;;;;;;4973185;28;20675;-74
2021/12/20 08:05:47;;;;;;;3.73;1.30;;;;;;;;;;4973861;28;20294;-74
2021/12/20 08:08:19;;;;;;;5.10;2.13;;;;;;;;;;4973058;28;20319;-74
2021/12/20 08:10:52;;;;;;;4.40;2.33;;;;;;;;;;4973950;28;20217;-74
2021/12/20 08:13:21;;;;;;;5.10;1.60;;;;;;;;;;4973273;28;20226;-73
2021/12/20 08:16:01;;;;;;;2.83;1.40;;;;;;;;;;4973966;28;20659;-74
2021/12/20 08:18:33;;;;;;;3.23;1.50;;;;;;;;;;4973550;28;20285;-73
2021/12/20 08:21:03;;;;;;;5.33;1.70;;;;;;;;;;4973740;28;20212;-73
2021/12/20 08:23:33;;;;;;;9.63;1.80;;;;;;;;;;4979184;28;20234;-74
2021/12/20 08:26:04;;;;;;;2.63;1.50;;;;;;;;;;4991515;28;20269;-74
2021/12/20 08:28:37;;;;;;;7.63;1.90;;;;;;;;;;4954666;29;20223;-74
2021/12/20 08:31:08;;;;;;;3.30;1.40;;;;;;;;;;4954278;29;20203;-73
2021/12/20 08:33:38;;;;;;;10.10;2.07;;;;;;;;;;4954456;28;20275;-74
2021/12/20 08:36:10;;;;;;;5.40;1.73;;;;;;;;;;4953987;28;20208;-74
2021/12/20 08:38:40;;;;;;;10.37;2.03;;;;;;;;;;4969361;28;20261;-74
2021/12/20 08:41:12;;;;;;;1.70;1.37;;;;;;;;;;4973476;28;20242;-74
2021/12/20 08:43:42;;;;;;;12.10;3.00;;;;;;;;;;4973758;28;20210;-74
2021/12/20 08:46:13;;;;;;;15.63;2.13;;;;;;;;;;4973555;28;20210;-74
2021/12/20 08:48:44;;;;;;;5.73;1.43;;;;;;;;;;4973462;28;20216;-75
2021/12/20 08:51:14;;;;;;;3.03;1.60;;;;;;;;;;4973373;28;20552;-75
2021/12/20 08:53:46;;;;;;;18.93;2.00;;;;;;;;;;4972975;28;20691;-74
2021/12/20 08:56:19;;;;;;;4.33;1.70;;;;;;;;;;4973334;28;20218;-74
2021/12/20 08:58:49;;;;;;;2.23;1.43;;;;;;;;;;4973509;28;20211;-74
2021/12/20 09:01:19;;;;;;;2.07;1.60;;;;;;;;;;4973442;28;20564;-74
2021/12/20 09:03:50;;;;;;;5.20;1.80;;;;;;;;;;4973511;28;20197;-74
2021/12/20 09:06:23;;;;;;;6.70;1.50;;;;;;;;;;4973469;28;20575;-74
2021/12/20 09:08:54;;;;;;;5.73;1.60;;;;;;;;;;4972450;28;20216;-74
2021/12/20 09:11:26;;;;;;;12.03;1.70;;;;;;;;;;4973530;28;20262;-74
2021/12/20 09:14:06;;;;;;;4.90;1.50;;;;;;;;;;4973392;28;20599;-74
2021/12/20 09:16:39;;;;;;;5.93;1.50;;;;;;;;;;4973786;28;20271;-74
2021/12/20 09:19:08;;;;;;;1.87;1.13;;;;;;;;;;4973322;28;20296;-74
2021/12/20 09:21:41;;;;;;;8.80;1.60;;;;;;;;;;4973355;28;20683;-74
2021/12/20 09:24:12;;;;;;;6.90;1.60;;;;;;;;;;4973081;28;20199;-74
2021/12/20 09:26:44;;;;;;;4.83;1.97;;;;;;;;;;4973255;28;20241;-74
2021/12/20 09:29:17;;;;;;;3.93;1.77;;;;;;;;;;4973071;28;20672;-74
2021/12/20 09:31:49;;;;;;;4.60;1.70;;;;;;;;;;4973237;28;20212;-74
2021/12/20 09:34:19;;;;;;;2.23;1.50;;;;;;;;;;4973190;28;20244;-74
2021/12/20 09:36:52;;;;;;;6.90;1.43;;;;;;;;;;4975574;28;20734;-74
2021/12/20 09:39:27;;;;;;;3.60;1.40;;;;;;;;;;4976192;28;20204;-74
2021/12/20 09:42:03;;;;;;;2.77;1.60;;;;;;;;;;4975430;28;20251;-74
2021/12/20 09:44:34;;;;;;;1.70;1.33;;;;;;;;;;4976799;28;20571;-74
2021/12/20 09:47:06;;;;;;;3.40;1.43;;;;;;;;;;4975992;28;20268;-74
2021/12/20 09:49:38;;;;;;;2.53;1.33;;;;;;;;;;4976181;28;20199;-74
2021/12/20 09:52:12;;;;;;;4.80;1.80;;;;;;;;;;4975592;28;20212;-74
2021/12/20 09:54:47;;;;;;;7.43;1.30;;;;;;;;;;4975978;28;20274;-74
2021/12/20 09:57:20;;;;;;;1.60;1.43;;;;;;;;;;4971378;28;20225;-74
2021/12/20 09:59:53;;;;;;;2.13;1.20;;;;;;;;;;4956693;29;20268;-74
2021/12/20 10:02:23;;;;;;;2.57;1.20;;;;;;;;;;4956836;28;20377;-74
2021/12/20 10:04:56;;;;;;;3.20;1.00;;;;;;;;;;4955784;29;20579;-74
2021/12/20 10:07:28;;;;;;;3.20;1.50;;;;;;;;;;4962248;28;20252;-75
2021/12/20 10:10:02;;;;;;;2.53;1.23;;;;;;;;;;4971083;28;20572;-75
2021/12/20 10:12:48;;;;;;;2.00;1.07;;;;;;;;;;4957145;28;20204;-74
2021/12/20 10:15:19;;;;;;;2.97;1.40;;;;;;;;;;4956399;28;20316;-73
2021/12/20 10:17:54;;;;;;;2.77;1.30;;;;;;;;;;4955295;28;20233;-74
2021/12/20 10:20:29;;;;;;;3.13;1.40;;;;;;;;;;4956412;28;20692;-74
2021/12/20 10:23:10;;;;;;;1.80;1.50;;;;;;;;;;4955963;28;20296;-74
2021/12/20 10:25:43;;;;;;;2.73;1.40;;;;;;;;;;4963867;28;20205;-74
2021/12/20 10:28:19;;;;;;;0.87;0.83;;;;;;;;;;4974936;28;20260;-74
2021/12/20 10:30:50;;;;;;;1.70;1.03;;;;;;;;;;4975726;28;20209;-74
2021/12/20 10:33:23;;;;;;;1.40;0.73;;;;;;;;;;4975695;28;20614;-74
2021/12/20 10:35:54;;;;;;;0.93;0.87;;;;;;;;;;4975828;28;20308;-74
2021/12/20 10:38:38;;;;;;;1.30;0.73;;;;;;;;;;4970155;28;20319;-74
2021/12/20 10:41:12;;;;;;;3.20;1.17;;;;;;;;;;4957268;28;20285;-74
2021/12/20 10:43:50;;;;;;;1.17;0.93;;;;;;;;;;4973367;28;20229;-75
2021/12/20 10:46:21;;;;;;;2.87;1.03;;;;;;;;;;4974660;28;20212;-75
2021/12/20 10:49:00;;;;;;;1.03;0.90;;;;;;;;;;4975096;28;20696;-75
2021/12/20 10:51:33;;;;;;;0.83;0.73;;;;;;;;;;4974960;28;20205;-75
2021/12/20 10:54:07;;;;;;;1.40;1.03;;;;;;;;;;4975295;28;20225;-75
2021/12/20 10:56:42;;;;;;;0.67;0.67;;;;;;;;;;4975137;28;20226;-75
2021/12/20 10:59:21;;;;;;;1.20;0.87;;;;;;;;;;4974574;28;20631;-75
2021/12/20 11:02:46;;;;;;;0.93;0.83;;;;;;;;;;4975286;28;20211;-75
2021/12/20 11:05:00;;;;;;;1.60;0.97;;;;;;;;;;4975544;28;20207;-75
2021/12/20 11:10:17;;;;;;;0.83;0.73;;;;;;;;;;4974763;28;20206;-75
2021/12/20 11:12:48;;;;;;;0.57;0.50;;;;;;;;;;4974840;28;20213;-75
2021/12/20 11:15:19;;;;;;;0.33;0.33;;;;;;;;;;4974768;28;20604;-75
2021/12/20 11:17:49;;;;;;;0.00;0.00;;;;;;;;;;4974913;28;20236;-75
2021/12/20 11:20:23;;;;;;;0.00;0.00;;;;;;;;;;4974640;28;20293;-75
2021/12/20 11:23:06;;;;;;;0.37;0.37;;;;;;;;;;4974055;28;20217;-75
2021/12/20 11:25:37;;;;;;;0.30;0.27;;;;;;;;;;4974907;28;20198;-75
2021/12/20 11:28:09;;;;;;;0.30;0.30;;;;;;;;;;4974433;28;20222;-75
2021/12/20 11:30:41;;;;;;;0.30;0.30;;;;;;;;;;4974625;28;20217;-75
2021/12/20 11:33:10;;;;;;;0.03;0.03;;;;;;;;;;4974650;28;20213;-75
2021/12/20 11:35:43;;;;;;;0.00;0.00;;;;;;;;;;4974603;28;20222;-75
2021/12/20 11:38:14;;;;;;;0.00;0.00;;;;;;;;;;4973468;28;20300;-75
2021/12/20 11:40:49;;;;;;;0.00;0.00;;;;;;;;;;4974461;28;20205;-75
2021/12/20 11:43:20;;;;;;;0.00;0.00;;;;;;;;;;4974468;28;20290;-75
2021/12/20 11:45:52;;;;;;;0.00;0.00;;;;;;;;;;4974806;28;20208;-76
2021/12/20 11:48:30;;;;;;;0.00;0.00;;;;;;;;;;4974816;28;20308;-76
2021/12/20 11:51:03;;;;;;;0.00;0.00;;;;;;;;;;4973762;28;20206;-76
2021/12/20 11:53:37;;;;;;;0.00;0.00;;;;;;;;;;4974311;28;20559;-76
2021/12/20 11:56:13;;;;;;;0.00;0.00;;;;;;;;;;4973723;28;20220;-76
2021/12/20 11:58:48;;;;;;;0.00;0.00;;;;;;;;;;4973379;28;20410;-76
2021/12/20 12:01:20;;;;;;;0.00;0.00;;;;;;;;;;4974320;28;20264;-75
2021/12/20 12:03:54;;;;;;;0.00;0.00;;;;;;;;;;4973786;28;20685;-75
2021/12/20 12:06:27;;;;;;;0.00;0.00;;;;;;;;;;4973723;28;20214;-75
2021/12/20 12:08:59;;;;;;;0.00;0.00;;;;;;;;;;4973657;28;20222;-75
2021/12/20 12:11:49;;;;;;;0.00;0.00;;;;;;;;;;4973982;28;20237;-76
2021/12/20 12:14:33;;;;;;;0.00;0.00;;;;;;;;;;4973826;28;20684;-76
2021/12/20 12:17:08;;;;;;;0.00;0.00;;;;;;;;;;4973674;28;20229;-76
2021/12/20 12:19:48;;;;;;;0.00;0.00;;;;;;;;;;4973762;28;20198;-76
2021/12/20 12:22:34;;;;;;;0.00;0.00;;;;;;;;;;4973137;28;20750;-76
2021/12/20 12:25:05;;;;;;;0.00;0.00;;;;;;;;;;4973392;28;20245;-76
2021/12/20 12:27:37;;;;;;;0.00;0.00;;;;;;;;;;4973503;28;20228;-76
2021/12/20 12:30:30;;;;;;;0.00;0.00;;;;;;;;;;4973604;28;20285;-75
2021/12/20 12:33:18;;;;;;;0.00;0.00;;;;;;;;;;4973798;28;20685;-75
2021/12/20 12:36:06;;;;;;;0.00;0.00;;;;;;;;;;4973136;28;21077;-76
2021/12/20 12:38:38;;;;;;;0.00;0.00;;;;;;;;;;4973600;28;20712;-76
2021/12/20 12:41:18;;;;;;;0.00;0.00;;;;;;;;;;4973503;28;20214;-76
2021/12/20 12:43:50;;;;;;;0.00;0.00;;;;;;;;;;4973121;28;20581;-76
2021/12/20 12:46:38;;;;;;;0.00;0.00;;;;;;;;;;4973500;28;20209;-76
2021/12/20 12:49:21;;;;;;;0.00;0.00;;;;;;;;;;4972800;28;20252;-75
2021/12/20 12:52:05;;;;;;;0.00;0.00;;;;;;;;;;4973258;28;20289;-75
2021/12/20 12:54:57;;;;;;;0.00;0.00;;;;;;;;;;4973564;28;20654;-75
2021/12/20 12:57:31;;;;;;;0.00;0.00;;;;;;;;;;4973303;28;20695;-75
2021/12/20 13:00:04;;;;;;;0.00;0.00;;;;;;;;;;4973675;28;20200;-75
2021/12/20 13:02:35;;;;;;;0.00;0.00;;;;;;;;;;4973733;28;20639;-75
2021/12/20 13:05:08;;;;;;;0.00;0.00;;;;;;;;;;4973448;28;20213;-75
2021/12/20 13:07:45;;;;;;;0.00;0.00;;;;;;;;;;4972921;28;20239;-75
2021/12/20 13:10:16;;;;;;;0.00;0.00;;;;;;;;;;4971703;28;20376;-75
2021/12/20 13:12:51;;;;;;;0.00;0.00;;;;;;;;;;4970554;28;20203;-75
2021/12/20 13:15:29;;;;;;;0.00;0.00;;;;;;;;;;4960446;28;20769;-75
2021/12/20 13:18:06;;;;;;;0.00;0.00;;;;;;;;;;4976518;28;20226;-75
2021/12/20 13:20:42;;;;;;;0.00;0.00;;;;;;;;;;4971432;28;20206;-75
2021/12/20 13:23:15;;;;;;;0.00;0.00;;;;;;;;;;4975680;28;20220;-75
2021/12/20 13:25:49;;;;;;;0.00;0.00;;;;;;;;;;4964706;28;20206;-75
2021/12/20 13:28:22;;;;;;;0.00;0.00;;;;;;;;;;4976161;28;20221;-75
2021/12/20 13:30:55;;;;;;;0.00;0.00;;;;;;;;;;4977456;28;20202;-75
2021/12/20 13:33:30;;;;;;;0.00;0.00;;;;;;;;;;4979284;28;20232;-75
2021/12/20 13:36:02;;;;;;;0.00;0.00;;;;;;;;;;4980069;28;20224;-75
2021/12/20 13:38:35;;;;;;;0.00;0.00;;;;;;;;;;4979987;28;20597;-74
2021/12/20 13:41:07;;;;;;;0.00;0.00;;;;;;;;;;4977631;28;20234;-75
2021/12/20 13:43:42;;;;;;;0.00;0.00;;;;;;;;;;4975751;28;20217;-75
2021/12/20 13:46:18;;;;;;;0.00;0.00;;;;;;;;;;4975866;28;20194;-75
2021/12/20 13:48:54;;;;;;;0.00;0.00;;;;;;;;;;4975993;28;20201;-75
2021/12/20 13:51:31;;;;;;;0.00;0.00;;;;;;;;;;4975811;28;20212;-75
2021/12/20 13:54:15;;;;;;;0.00;0.00;;;;;;;;;;4994424;28;20205;-75
2021/12/20 13:56:48;;;;;;;0.00;0.00;;;;;;;;;;4993884;28;20232;-75
2021/12/20 13:59:23;;;;;;;0.00;0.00;;;;;;;;;;4994955;28;20205;-75
2021/12/20 14:01:54;;;;;;;0.00;0.00;;;;;;;;;;4995960;28;20247;-75
2021/12/20 14:04:29;;;;;;;0.00;0.00;;;;;;;;;;4984873;28;20253;-75
2021/12/20 14:06:59;;;;;;;0.00;0.00;;;;;;;;;;4975457;28;20249;-75
2021/12/20 14:09:49;;;;;;;0.00;0.00;;;;;;;;;;4974237;28;20205;-75
2021/12/20 14:12:24;;;;;;;0.00;0.00;;;;;;;;;;4975689;28;20568;-75
2021/12/20 14:14:59;;;;;;;0.00;0.00;;;;;;;;;;4974925;28;20237;-75
2021/12/20 14:17:30;;;;;;;0.00;0.00;;;;;;;;;;4973806;28;20639;-76
2021/12/20 14:20:06;;;;;;;0.00;0.00;;;;;;;;;;4974634;28;20261;-75
2021/12/20 14:22:51;;;;;;;0.00;0.00;;;;;;;;;;4974814;28;20209;-75
2021/12/20 14:25:30;;;;;;;0.00;0.00;;;;;;;;;;4975224;28;20201;-75
2021/12/20 14:28:02;;;;;;;0.00;0.00;;;;;;;;;;4975046;28;20276;-75
2021/12/20 14:30:39;;;;;;;0.00;0.00;;;;;;;;;;4975197;28;20201;-75
2021/12/20 14:33:25;;;;;;;0.00;0.00;;;;;;;;;;4965348;28;20241;-75
2021/12/20 14:36:00;;;;;;;0.00;0.00;;;;;;;;;;4976043;28;20260;-74
2021/12/20 14:38:45;;;;;;;0.00;0.00;;;;;;;;;;4975748;28;20280;-74
2021/12/20 14:41:27;;;;;;;0.00;0.00;;;;;;;;;;4969589;28;20206;-74
2021/12/20 14:44:00;;;;;;;0.00;0.00;;;;;;;;;;4975334;28;20204;-74
2021/12/20 14:46:37;;;;;;;0.00;0.00;;;;;;;;;;4973861;28;20253;-74
2021/12/20 14:49:16;;;;;;;0.00;0.00;;;;;;;;;;4973666;28;20236;-74
2021/12/20 14:51:47;;;;;;;0.00;0.00;;;;;;;;;;4973138;28;20209;-75
2021/12/20 14:54:22;;;;;;;0.00;0.00;;;;;;;;;;4974375;28;20237;-75
2021/12/20 14:56:59;;;;;;;0.00;0.00;;;;;;;;;;4974369;28;20233;-75
2021/12/20 14:59:34;;;;;;;0.00;0.00;;;;;;;;;;4974519;28;20206;-75
2021/12/20 15:02:09;;;;;;;0.00;0.00;;;;;;;;;;4971603;28;20607;-74
2021/12/20 15:04:41;;;;;;;0.00;0.00;;;;;;;;;;4975034;28;20209;-74
2021/12/20 15:07:16;;;;;;;0.00;0.00;;;;;;;;;;4964805;28;20283;-74
2021/12/20 15:09:46;;;;;;;0.00;0.00;;;;;;;;;;4969051;28;20208;-70
2021/12/20 15:12:20;;;;;;;0.00;0.00;;;;;;;;;;4969881;28;20341;-71
2021/12/20 15:14:51;;;;;;;0.00;0.00;;;;;;;;;;4970120;28;20203;-71
2021/12/20 15:17:27;;;;;;;0.00;0.00;;;;;;;;;;4968285;28;20574;-71
2021/12/20 15:19:59;;;;;;;0.00;0.00;;;;;;;;;;4970915;28;20575;-70
2021/12/20 15:22:37;;;;;;;0.00;0.00;;;;;;;;;;4969570;28;20201;-71
2021/12/20 15:25:21;;;;;;;0.00;0.00;;;;;;;;;;4975959;28;20694;-70
2021/12/20 15:27:53;;;;;;;0.00;0.00;;;;;;;;;;4970618;28;20230;-73
2021/12/20 15:30:25;;;;;;;0.00;0.00;;;;;;;;;;4970287;28;20202;-71
2021/12/20 15:32:56;;;;;;;0.00;0.00;;;;;;;;;;4964012;28;20270;-70
2021/12/20 15:35:25;;;;;;;0.00;0.00;;;;;;;;;;4971193;28;20262;-71